createdAt,value
2022-09-06T00:03:12.552Z,16.61
2022-09-06T00:08:13.343Z,16.56
2022-09-06T00:13:14.076Z,16.49
2022-09-06T00:18:14.852Z,16.43
2022-09-06T00:23:15.591Z,16.31
2022-09-06T00:28:16.315Z,16.24
2022-09-06T00:33:17.093Z,16.21
2022-09-06T00:38:17.873Z,16.11
2022-09-06T00:43:18.566Z,16.07
2022-09-06T00:48:19.339Z,15.97
2022-09-06T00:53:20.052Z,15.92
2022-09-06T00:58:20.874Z,15.83
2022-09-06T01:03:21.603Z,15.75
2022-09-06T01:08:22.326Z,15.71
2022-09-06T01:13:23.135Z,15.67
2022-09-06T01:18:23.904Z,15.57
2022-09-06T01:23:24.594Z,15.56
2022-09-06T01:28:25.411Z,15.57
2022-09-06T01:33:26.127Z,15.54
2022-09-06T01:38:26.930Z,15.57
2022-09-06T01:43:27.689Z,15.57
2022-09-06T01:48:28.577Z,15.59
2022-09-06T01:53:29.342Z,15.65
2022-09-06T01:58:30.097Z,15.67
2022-09-06T02:03:30.843Z,15.68
2022-09-06T02:08:31.600Z,15.69
2022-09-06T02:13:32.340Z,15.64
2022-09-06T02:18:33.063Z,15.62
2022-09-06T02:23:33.864Z,15.50
2022-09-06T02:28:34.551Z,15.41
2022-09-06T02:33:35.349Z,15.28
2022-09-06T02:38:36.075Z,15.20
2022-09-06T02:43:36.812Z,15.20
2022-09-06T02:48:37.564Z,15.13
2022-09-06T02:53:38.316Z,15.09
2022-09-06T02:58:39.017Z,15.06
2022-09-06T03:03:39.848Z,15.03
2022-09-06T03:08:40.644Z,15.02
2022-09-06T03:13:41.456Z,14.99
2022-09-06T03:18:42.368Z,14.94
2022-09-06T03:23:43.151Z,14.84
2022-09-06T03:28:43.888Z,14.80
2022-09-06T03:33:44.688Z,14.77
2022-09-06T03:38:45.487Z,14.77
2022-09-06T03:43:46.168Z,14.77
2022-09-06T03:48:46.950Z,14.81
2022-09-06T03:53:47.815Z,14.86
2022-09-06T03:58:48.500Z,14.86
2022-09-06T04:03:49.314Z,14.86
2022-09-06T04:08:50.050Z,14.81
2022-09-06T04:13:50.719Z,14.77
2022-09-06T04:18:51.432Z,14.75
2022-09-06T04:23:52.116Z,14.72
2022-09-06T04:28:52.795Z,14.70
2022-09-06T04:33:53.499Z,14.72
2022-09-06T04:38:54.278Z,14.75
2022-09-06T04:44:02.029Z,14.75
2022-09-06T04:48:55.859Z,14.78
2022-09-06T04:53:56.818Z,14.77
2022-09-06T04:58:57.065Z,14.73
2022-09-06T05:03:57.777Z,14.72
2022-09-06T05:08:58.468Z,14.73
2022-09-06T05:13:59.214Z,14.84
2022-09-06T05:18:59.907Z,14.94
2022-09-06T05:24:00.701Z,14.99
2022-09-06T05:29:01.385Z,14.96
2022-09-06T05:34:02.085Z,14.99
2022-09-06T05:39:02.779Z,15.03
2022-09-06T05:44:03.517Z,15.20
2022-09-06T05:49:04.166Z,15.36
2022-09-06T05:54:04.943Z,15.31
2022-09-06T05:59:05.615Z,15.31
2022-09-06T06:04:06.350Z,15.43
2022-09-06T06:09:07.000Z,15.50
2022-09-06T06:14:07.684Z,15.54
2022-09-06T06:19:08.372Z,15.60
2022-09-06T06:24:09.059Z,15.68
2022-09-06T06:29:09.788Z,15.72
2022-09-06T06:34:10.428Z,15.94
2022-09-06T06:39:11.111Z,16.14
2022-09-06T06:44:11.806Z,16.23
2022-09-06T06:49:12.483Z,16.25
2022-09-06T06:54:13.166Z,16.52
2022-09-06T06:59:13.865Z,16.61
2022-09-06T07:04:14.549Z,16.83
2022-09-06T07:09:15.205Z,16.88
2022-09-06T07:14:15.907Z,17.16
2022-09-06T07:24:18.130Z,17.55
2022-09-06T07:29:17.810Z,17.28
2022-09-06T07:34:18.499Z,17.37
2022-09-06T07:39:19.189Z,17.38
2022-09-06T07:44:19.866Z,17.43
2022-09-06T07:49:20.562Z,17.59
2022-09-06T07:54:36.656Z,17.86
2022-09-06T07:59:22.811Z,18.00
2022-09-06T08:04:22.489Z,17.96
2022-09-06T08:09:23.165Z,18.02
2022-09-06T08:14:23.867Z,17.93
2022-09-06T08:19:24.536Z,18.00
2022-09-06T08:24:25.212Z,18.15
2022-09-06T08:29:25.882Z,18.17
2022-09-06T08:34:26.555Z,18.29
2022-09-06T08:39:27.265Z,18.25
2022-09-06T08:49:29.461Z,18.48
2022-09-06T08:54:29.145Z,18.62
2022-09-06T08:59:29.823Z,18.72
2022-09-06T09:04:30.502Z,19.06
2022-09-06T09:09:31.191Z,19.29
2022-09-06T09:14:31.874Z,19.11
2022-09-06T09:19:32.559Z,19.14
2022-09-06T09:24:33.239Z,19.26
2022-09-06T09:29:36.425Z,19.48
2022-09-06T09:34:34.652Z,19.61
2022-09-06T09:39:35.368Z,19.71
2022-09-06T09:44:36.008Z,19.81
2022-09-06T09:49:36.678Z,20.18
2022-09-06T09:54:37.375Z,20.14
2022-09-06T09:59:38.072Z,20.06
2022-09-06T10:09:39.376Z,20.10
2022-09-06T10:14:40.036Z,20.26
2022-09-06T10:19:40.721Z,20.43
2022-09-06T10:24:41.392Z,20.54
2022-09-06T10:29:42.087Z,20.69
2022-09-06T10:34:42.950Z,20.88
2022-09-06T10:39:43.657Z,21.12
2022-09-06T10:44:51.333Z,21.16
2022-09-06T10:49:45.009Z,21.21
2022-09-06T10:54:45.698Z,20.99
2022-09-06T10:59:47.559Z,20.95
2022-09-06T11:09:48.471Z,21.01
2022-09-06T11:14:48.229Z,21.12
2022-09-06T11:19:48.916Z,21.24
2022-09-06T11:24:49.603Z,21.47
2022-09-06T11:29:50.348Z,21.59
2022-09-06T11:34:51.183Z,21.43
2022-09-06T11:44:53.406Z,21.53
2022-09-06T11:49:53.171Z,21.46
2022-09-06T11:54:53.818Z,21.62
2022-09-06T11:59:54.489Z,21.62
2022-09-06T12:04:57.174Z,21.69
2022-09-06T12:09:55.765Z,21.62
2022-09-06T12:14:56.416Z,21.69
2022-09-06T12:19:57.150Z,21.72
2022-09-06T12:24:57.782Z,21.74
2022-09-06T12:29:58.726Z,21.84
2022-09-06T12:40:01.069Z,21.82
2022-09-06T12:45:00.709Z,21.98
2022-09-06T12:50:01.372Z,22.06
2022-09-06T12:55:02.052Z,22.27
2022-09-06T13:00:02.936Z,22.36
2022-09-06T13:05:03.622Z,22.18
2022-09-06T13:10:04.307Z,22.21
2022-09-06T13:15:05.070Z,22.33
2022-09-06T13:20:05.772Z,22.67
2022-09-06T13:25:06.437Z,22.83
2022-09-06T13:30:07.115Z,22.98
2022-09-06T13:35:08.121Z,22.85
2022-09-06T13:40:08.366Z,22.67
2022-09-06T13:45:08.996Z,22.85
2022-09-06T13:50:09.740Z,22.92
2022-09-06T13:55:10.387Z,23.10
2022-09-06T14:00:11.914Z,23.57
2022-09-06T14:05:11.621Z,23.94
2022-09-06T14:10:12.235Z,24.03
2022-09-06T14:15:12.891Z,23.60
2022-09-06T14:20:14.661Z,23.54
2022-09-06T14:25:14.400Z,23.50
2022-09-06T14:30:15.112Z,23.36
2022-09-06T14:35:15.717Z,23.25
2022-09-06T14:40:16.493Z,23.40
2022-09-06T14:45:17.569Z,23.42
2022-09-06T14:50:17.779Z,23.53
2022-09-06T14:55:18.533Z,23.58
2022-09-06T15:00:19.145Z,23.46
2022-09-06T15:05:19.994Z,23.09
2022-09-06T15:10:20.693Z,22.79
2022-09-06T15:15:21.374Z,22.73
2022-09-06T15:20:21.964Z,22.85
2022-09-06T15:25:22.898Z,22.85
2022-09-06T15:30:23.645Z,22.61
2022-09-06T15:35:24.316Z,22.55
2022-09-06T15:40:24.965Z,22.60
2022-09-06T15:45:25.707Z,22.40
2022-09-06T15:50:49.750Z,22.33
2022-09-06T15:55:27.898Z,22.10
2022-09-06T16:00:27.559Z,22.06
2022-09-06T16:10:29.782Z,21.98
2022-09-06T16:15:29.525Z,21.86
2022-09-06T16:20:33.338Z,21.75
2022-09-06T16:25:31.302Z,21.65
2022-09-06T16:30:32.039Z,21.58
2022-09-06T16:35:32.676Z,21.54
2022-09-06T16:40:33.341Z,21.47
2022-09-06T16:45:34.000Z,21.34
2022-09-06T16:50:41.670Z,21.28
2022-09-06T16:55:35.342Z,21.21
2022-09-06T17:00:36.058Z,21.16
2022-09-06T17:05:36.720Z,21.12
2022-09-06T17:10:37.504Z,21.09
2022-09-06T17:15:38.341Z,20.99
2022-09-06T17:20:39.114Z,20.92
2022-09-06T17:25:39.746Z,20.87
2022-09-06T17:30:40.708Z,20.77
2022-09-06T17:35:41.389Z,20.74
2022-09-06T17:40:42.140Z,20.72
2022-09-06T17:45:42.914Z,20.67
2022-09-06T17:50:43.657Z,20.59
2022-09-06T17:55:44.406Z,20.58
2022-09-06T18:00:45.083Z,20.54
2022-09-06T18:05:45.780Z,20.50
2022-09-06T18:10:46.562Z,20.43
2022-09-06T18:15:47.448Z,20.41
2022-09-06T18:20:48.311Z,20.38
2022-09-06T18:25:49.009Z,20.33
2022-09-06T18:30:49.784Z,20.26
2022-09-06T18:35:50.506Z,20.23
2022-09-06T18:40:51.311Z,20.21
2022-09-06T18:45:52.099Z,20.18
2022-09-06T18:50:55.812Z,20.13
2022-09-06T18:55:54.520Z,20.08
2022-09-06T19:00:54.286Z,20.06
2022-09-06T19:05:55.002Z,20.03
2022-09-06T19:10:55.835Z,19.94
2022-09-06T19:15:56.608Z,19.86
2022-09-06T19:20:57.297Z,19.81
2022-09-06T19:25:58.076Z,19.76
2022-09-06T19:30:58.857Z,19.74
2022-09-06T19:36:10.982Z,19.74
2022-09-06T19:41:01.205Z,19.74
2022-09-06T19:46:01.027Z,19.74
2022-09-06T19:51:01.835Z,19.74
2022-09-06T19:56:02.596Z,19.71
2022-09-06T20:01:03.400Z,19.65
2022-09-06T20:06:04.194Z,19.61
2022-09-06T20:11:04.966Z,19.61
2022-09-06T20:16:05.783Z,19.63
2022-09-06T20:21:06.506Z,19.56
2022-09-06T20:26:07.370Z,19.58
2022-09-06T20:31:08.136Z,19.56
2022-09-06T20:36:08.847Z,19.55
2022-09-06T20:41:09.599Z,19.47
2022-09-06T20:46:10.438Z,19.44
2022-09-06T20:51:11.219Z,19.47
2022-09-06T20:56:11.939Z,19.50
2022-09-06T21:01:12.736Z,19.54
2022-09-06T21:06:13.441Z,19.48
2022-09-06T21:11:14.178Z,19.43
2022-09-06T21:16:14.982Z,19.40
2022-09-06T21:21:15.712Z,19.39
2022-09-06T21:26:16.454Z,19.36
2022-09-06T21:31:17.237Z,19.31
2022-09-06T21:36:17.950Z,19.28
2022-09-06T21:41:18.652Z,19.25
2022-09-06T21:46:19.442Z,19.25
2022-09-06T21:51:20.150Z,19.23
2022-09-06T21:56:20.902Z,19.19
2022-09-06T22:01:21.688Z,19.11
2022-09-06T22:06:22.402Z,19.04
2022-09-06T22:11:23.137Z,18.99
2022-09-06T22:16:23.925Z,18.82
2022-09-06T22:21:24.688Z,18.73
2022-09-06T22:26:25.426Z,18.66
2022-09-06T22:31:26.203Z,18.65
2022-09-06T22:36:26.912Z,18.62
2022-09-06T22:41:27.650Z,18.58
2022-09-06T22:46:28.460Z,18.58
2022-09-06T22:51:36.220Z,18.54
2022-09-06T22:56:30.009Z,18.50
2022-09-06T23:01:30.856Z,18.45
2022-09-06T23:06:31.696Z,18.39
2022-09-06T23:11:32.567Z,18.33
2022-09-06T23:16:33.352Z,18.27
2022-09-06T23:21:34.146Z,18.20
2022-09-06T23:26:34.894Z,18.15
2022-09-06T23:31:35.695Z,18.11
2022-09-06T23:36:36.455Z,18.07
2022-09-06T23:41:37.187Z,18.03
2022-09-06T23:46:37.997Z,18.03
2022-09-06T23:51:38.742Z,18.02
2022-09-06T23:56:39.487Z,18.02
